Crocus, North Dakota
Current Conditions -  °F | °C
As of 1:35 PM on Thursday 27 Nov 2014 (Local Time) from K06D Reporting Station
Clear Clear  
Wind Chill: -13°   Ceiling: Unl
Heat Index:   Visibility: 10mi
Dew Point:   Wind: 15mph
Humidity: 85%   Direction: 190°S
Pressure: 30.16"   Gusts: NA
Location:  48.8584°N, 99.1311°W
Report Text: K06D 271935Z AUTO 19013KT 10SM CLR M15/M17 A3016 RMK AO2
Loading
Personal Weather Stations






























Interactive Weather Map New forecast layout! Learn more

10-Day Weather Forecast

Advertisements
Track Severe Weather on mobile